Time;durP1;ratioP1;P1;durP2;ratioP2;P2;SDS_P1;SDS_P2;PMS_P1;PMS_P2;Temp;Humidity;BMP_temperature;BMP_pressure;BME280_temperature;BME280_humidity;BME280_pressure;Samples;Min_cycle;Max_cycle;Signal;HPM_P1;HPM_P2
2021/03/31 00:00:29;;;;;;;9.75;5.20;;;13.60;63.20;;;;;;5016837;28;20036;-77
2021/03/31 00:03:01;;;;;;;8.85;5.78;;;13.80;63.30;;;;;;5016419;28;20022;-78
2021/03/31 00:05:27;;;;;;;9.85;5.88;;;13.60;65.40;;;;;;5016479;28;20404;-77
2021/03/31 00:07:54;;;;;;;10.60;6.28;;;13.50;64.80;;;;;;5023080;28;20083;-78
2021/03/31 00:10:31;;;;;;;8.10;5.45;;;13.30;64.50;;;;;;5035834;28;20072;-78
2021/03/31 00:12:57;;;;;;;9.90;5.75;;;13.50;64.30;;;;;;5035924;28;20034;-78
2021/03/31 00:15:23;;;;;;;10.43;5.53;;;13.60;64.40;;;;;;5035579;28;20053;-78
2021/03/31 00:17:49;;;;;;;8.15;5.85;;;13.60;63.80;;;;;;5034068;28;20029;-78
2021/03/31 00:20:16;;;;;;;10.15;6.07;;;13.70;63.50;;;;;;5033394;28;20373;-79
2021/03/31 00:22:43;;;;;;;8.27;5.63;;;13.60;64.70;;;;;;5033443;28;20088;-79
2021/03/31 00:25:11;;;;;;;9.57;5.70;;;13.60;64.30;;;;;;5033472;28;20053;-77
2021/03/31 00:27:36;;;;;;;10.80;6.00;;;13.30;65.60;;;;;;5032874;28;20053;-80
2021/03/31 00:30:05;;;;;;;7.85;5.70;;;13.50;65.40;;;;;;5015563;28;20060;-79
2021/03/31 00:32:31;;;;;;;9.48;5.95;;;13.50;66.20;;;;;;5032827;28;20079;-78
2021/03/31 00:34:57;;;;;;;9.48;5.63;;;13.50;66.60;;;;;;5032662;28;20045;-78
2021/03/31 00:37:23;;;;;;;11.50;5.88;;;13.50;65.60;;;;;;5032382;28;20025;-77
2021/03/31 00:39:48;;;;;;;10.95;5.03;;;13.50;65.30;;;;;;5032596;28;20064;-75
2021/03/31 00:42:14;;;;;;;7.63;4.82;;;13.40;65.30;;;;;;5032848;28;20068;-78
2021/03/31 00:44:40;;;;;;;7.60;4.97;;;13.40;63.60;;;;;;5015318;28;20416;-78
2021/03/31 00:47:06;;;;;;;7.85;4.65;;;13.30;62.50;;;;;;5032291;28;20025;-77
2021/03/31 00:49:32;;;;;;;6.85;4.78;;;13.40;62.50;;;;;;5032419;28;20372;-76
2021/03/31 00:51:59;;;;;;;8.38;5.15;;;13.30;61.60;;;;;;5031941;28;20056;-77
2021/03/31 00:54:25;;;;;;;7.13;4.78;;;13.00;63.30;;;;;;5032405;28;20045;-79
2021/03/31 00:56:51;;;;;;;6.18;4.70;;;13.10;63.40;;;;;;5032536;28;20021;-76
2021/03/31 00:59:17;;;;;;;7.35;4.70;;;13.20;62.80;;;;;;5032977;28;20876;-76
2021/03/31 01:01:44;;;;;;;8.10;4.80;;;13.10;62.70;;;;;;5032357;28;20029;-76
2021/03/31 01:04:10;;;;;;;7.13;4.30;;;13.10;63.40;;;;;;5014247;28;20025;-75
2021/03/31 01:06:35;;;;;;;6.45;4.68;;;13.00;63.50;;;;;;5031897;28;20040;-77
2021/03/31 01:09:01;;;;;;;8.38;4.85;;;13.00;63.80;;;;;;5016764;28;20105;-76
2021/03/31 01:11:47;;;;;;;8.77;5.20;;;13.00;64.40;;;;;;5012748;28;20500;-77
2021/03/31 01:14:36;;;;;;;7.47;5.20;;;12.90;65.00;;;;;;5020215;28;20045;-78
2021/03/31 01:17:08;;;;;;;8.02;4.97;;;13.00;65.60;;;;;;5031617;28;20041;-75
2021/03/31 01:19:36;;;;;;;7.68;5.20;;;12.90;65.90;;;;;;5031697;28;20018;-76
2021/03/31 01:22:20;;;;;;;7.53;5.28;;;12.90;66.60;;;;;;5031363;28;20045;-76
2021/03/31 01:25:12;;;;;;;7.13;5.40;;;12.90;66.90;;;;;;5032208;28;20063;-77
2021/03/31 01:27:58;;;;;;;7.30;5.00;;;12.70;67.30;;;;;;5032057;28;20116;-76
2021/03/31 01:30:35;;;;;;;6.90;4.90;;;12.70;67.20;;;;;;5031742;28;20513;-77
2021/03/31 01:33:03;;;;;;;7.80;5.35;;;12.80;67.40;;;;;;5031385;28;20061;-77
2021/03/31 01:35:30;;;;;;;7.78;5.25;;;12.70;66.80;;;;;;5031377;28;20558;-77
2021/03/31 01:38:01;;;;;;;7.70;5.20;;;12.70;66.60;;;;;;5031037;28;20436;-78
2021/03/31 01:40:28;;;;;;;6.00;4.38;;;12.60;66.40;;;;;;5031768;28;20389;-77
2021/03/31 01:43:02;;;;;;;8.45;5.95;;;12.60;65.80;;;;;;5031322;28;20033;-76
2021/03/31 01:45:33;;;;;;;5.75;4.80;;;12.50;66.10;;;;;;5031318;28;20040;-76
2021/03/31 01:48:06;;;;;;;9.50;4.88;;;12.50;66.60;;;;;;5030839;28;20044;-77
2021/03/31 01:50:33;;;;;;;9.23;5.07;;;12.40;66.90;;;;;;5031069;28;20030;-76
2021/03/31 01:53:01;;;;;;;8.05;5.20;;;12.50;67.50;;;;;;5030806;28;20098;-77
2021/03/31 01:55:29;;;;;;;9.02;5.10;;;12.40;67.70;;;;;;5031602;28;20026;-78
2021/03/31 01:57:56;;;;;;;10.52;5.20;;;12.40;67.30;;;;;;5031179;28;20033;-77
2021/03/31 02:00:22;;;;;;;7.45;5.38;;;12.40;67.60;;;;;;5031419;28;20389;-77
2021/03/31 02:02:52;;;;;;;7.47;4.88;;;12.30;67.80;;;;;;5030709;28;20380;-78
2021/03/31 02:05:19;;;;;;;8.77;5.72;;;12.30;67.50;;;;;;5030849;28;20384;-77
2021/03/31 02:07:46;;;;;;;6.97;5.10;;;12.30;68.00;;;;;;5033932;28;20052;-76
2021/03/31 02:10:15;;;;;;;10.32;5.43;;;12.20;67.90;;;;;;5051311;28;20092;-77
2021/03/31 02:12:43;;;;;;;7.82;5.55;;;12.10;67.80;;;;;;5050940;28;20063;-78
2021/03/31 02:15:12;;;;;;;7.82;5.00;;;11.80;68.50;;;;;;5035285;28;20061;-78
2021/03/31 02:17:39;;;;;;;9.30;5.00;;;11.90;67.70;;;;;;5030699;28;20025;-78
2021/03/31 02:20:06;;;;;;;9.35;5.85;;;11.90;66.90;;;;;;5030336;28;20554;-78
2021/03/31 02:22:34;;;;;;;9.50;5.13;;;11.90;66.90;;;;;;5030189;28;20025;-77
2021/03/31 02:25:00;;;;;;;6.97;5.43;;;11.90;66.60;;;;;;5031216;28;20034;-77
2021/03/31 02:27:26;;;;;;;6.57;4.75;;;11.80;66.30;;;;;;5031085;28;20421;-76
2021/03/31 02:29:52;;;;;;;8.95;5.10;;;11.80;65.90;;;;;;5031235;28;20487;-76
2021/03/31 02:32:22;;;;;;;8.55;5.20;;;11.90;66.20;;;;;;5030575;28;20091;-79
2021/03/31 02:34:58;;;;;;;8.15;4.68;;;11.80;67.30;;;;;;5030088;28;20018;-78
2021/03/31 02:37:25;;;;;;;6.65;4.63;;;11.60;67.40;;;;;;5030322;28;20018;-77
2021/03/31 02:39:53;;;;;;;7.78;4.93;;;11.70;66.50;;;;;;5030820;28;20025;-77
2021/03/31 02:42:21;;;;;;;7.47;4.97;;;11.60;66.30;;;;;;5029970;28;20034;-77
2021/03/31 02:44:50;;;;;;;7.00;5.10;;;11.60;66.20;;;;;;5030868;28;20037;-77
2021/03/31 02:47:19;;;;;;;7.63;5.28;;;11.70;65.60;;;;;;5030373;28;20021;-77
2021/03/31 02:49:48;;;;;;;7.18;5.00;;;11.70;65.80;;;;;;5030085;28;20057;-77
2021/03/31 02:52:16;;;;;;;9.52;5.13;;;11.70;65.70;;;;;;5030013;28;20024;-77
2021/03/31 02:54:43;;;;;;;6.93;4.93;;;11.50;66.30;;;;;;5030477;28;20400;-77
2021/03/31 02:57:10;;;;;;;7.95;4.65;;;11.50;66.80;;;;;;5030355;28;20033;-76
2021/03/31 02:59:44;;;;;;;7.57;5.10;;;11.50;66.50;;;;;;5030666;28;20116;-79
2021/03/31 03:02:10;;;;;;;10.55;5.30;;;11.40;66.80;;;;;;5029897;28;20021;-76
2021/03/31 03:04:39;;;;;;;7.78;4.85;;;11.20;67.80;;;;;;5029806;28;20048;-77
2021/03/31 03:07:07;;;;;;;6.57;4.53;;;11.00;69.00;;;;;;5029859;28;20032;-78
2021/03/31 03:09:34;;;;;;;7.15;5.28;;;11.20;69.40;;;;;;5013359;28;20034;-75
2021/03/31 03:12:00;;;;;;;7.10;5.03;;;11.30;69.50;;;;;;4993151;28;20037;-76
2021/03/31 03:14:28;;;;;;;7.00;5.15;;;11.40;69.40;;;;;;5020280;28;20110;-76
2021/03/31 03:16:54;;;;;;;8.60;5.15;;;11.20;70.00;;;;;;5030199;28;20024;-77
2021/03/31 03:19:19;;;;;;;6.43;4.70;;;11.30;69.40;;;;;;5029967;28;20033;-76
2021/03/31 03:21:48;;;;;;;7.60;5.57;;;11.40;68.60;;;;;;5030199;28;20030;-75
2021/03/31 03:24:15;;;;;;;8.45;5.28;;;11.30;69.60;;;;;;5029884;28;20037;-77
2021/03/31 03:26:41;;;;;;;9.55;5.32;;;11.10;70.80;;;;;;5030366;28;20164;-76
2021/03/31 03:29:09;;;;;;;10.80;5.05;;;11.10;70.60;;;;;;5030355;28;20079;-76
2021/03/31 03:31:36;;;;;;;8.82;5.40;;;10.90;70.40;;;;;;5029900;28;20037;-76
2021/03/31 03:34:06;;;;;;;7.95;4.72;;;11.10;69.20;;;;;;5029310;28;20026;-77
2021/03/31 03:36:33;;;;;;;8.10;5.35;;;11.20;68.40;;;;;;5029727;28;20100;-77
2021/03/31 03:38:59;;;;;;;8.00;4.90;;;11.10;67.80;;;;;;5029613;28;20045;-76
2021/03/31 03:41:24;;;;;;;8.35;5.40;;;11.10;67.90;;;;;;5029962;28;20029;-76
2021/03/31 03:43:54;;;;;;;11.52;6.20;;;11.00;69.50;;;;;;5030285;28;20033;-76
2021/03/31 03:46:21;;;;;;;12.60;8.43;;;10.70;74.10;;;;;;5030067;28;20022;-76
2021/03/31 03:48:47;;;;;;;11.45;6.88;;;10.60;78.10;;;;;;5029438;28;20029;-77
2021/03/31 03:51:13;;;;;;;8.73;5.88;;;10.50;78.50;;;;;;5029348;28;20431;-75
2021/03/31 03:53:39;;;;;;;14.20;6.32;;;10.50;78.70;;;;;;5030705;28;20035;-76
2021/03/31 03:56:13;;;;;;;7.47;6.00;;;10.50;82.50;;;;;;5033571;28;20025;-77
2021/03/31 03:58:40;;;;;;;9.80;6.20;;;10.30;82.70;;;;;;5034139;28;20036;-76
2021/03/31 04:01:06;;;;;;;12.52;6.35;;;10.30;85.80;;;;;;5033584;28;20045;-76
2021/03/31 04:03:32;;;;;;;14.45;7.10;;;10.40;88.50;;;;;;5033248;28;20033;-75
2021/03/31 04:05:58;;;;;;;12.77;8.10;;;10.30;90.70;;;;;;5032938;28;20017;-76
2021/03/31 04:08:24;;;;;;;15.38;8.30;;;10.20;92.30;;;;;;5038301;28;20100;-77
2021/03/31 04:10:55;;;;;;;10.52;7.30;;;10.00;93.50;;;;;;5053412;28;20086;-76
2021/03/31 04:13:23;;;;;;;14.43;8.25;;;10.10;94.90;;;;;;5052506;28;20021;-75
2021/03/31 04:15:56;;;;;;;11.93;7.75;;;10.20;95.30;;;;;;5033220;28;20133;-77
2021/03/31 04:18:22;;;;;;;13.57;8.60;;;9.90;96.40;;;;;;5032632;28;20024;-76
2021/03/31 04:20:49;;;;;;;15.80;8.60;;;10.00;96.90;;;;;;5031975;28;20025;-76
2021/03/31 04:23:16;;;;;;;15.82;8.35;;;10.10;97.00;;;;;;5011646;28;20153;-76
2021/03/31 04:25:42;;;;;;;13.38;7.55;;;10.10;97.20;;;;;;5013317;28;20056;-77
2021/03/31 04:28:11;;;;;;;20.20;9.73;;;10.10;97.20;;;;;;5013565;28;20026;-77
2021/03/31 04:30:39;;;;;;;16.27;9.60;;;10.10;97.40;;;;;;5013152;28;20489;-76
2021/03/31 04:33:08;;;;;;;19.73;9.75;;;10.10;97.90;;;;;;5012754;28;20034;-76
2021/03/31 04:35:34;;;;;;;17.48;8.35;;;10.20;97.50;;;;;;5012381;28;20018;-76
2021/03/31 04:38:11;;;;;;;15.82;8.13;;;10.00;98.00;;;;;;5012532;28;20026;-79
2021/03/31 04:40:56;;;;;;;14.02;8.75;;;10.10;98.60;;;;;;5012818;28;20514;-77
2021/03/31 04:43:24;;;;;;;16.10;8.23;;;10.10;98.60;;;;;;5012998;28;20034;-76
2021/03/31 04:45:50;;;;;;;14.20;7.72;;;10.30;98.00;;;;;;5013203;28;20087;-77
2021/03/31 04:48:16;;;;;;;16.88;8.40;;;10.10;98.20;;;;;;5012397;28;20029;-76
2021/03/31 04:50:42;;;;;;;30.95;12.93;;;10.10;98.50;;;;;;5012111;28;20032;-75
2021/03/31 04:53:08;;;;;;;24.80;11.30;;;10.20;98.30;;;;;;5012363;28;20026;-75
2021/03/31 04:55:34;;;;;;;21.02;10.85;;;10.00;98.10;;;;;;5012982;28;20034;-77
2021/03/31 04:58:00;;;;;;;29.60;13.40;;;10.10;98.30;;;;;;5012663;28;20536;-76
2021/03/31 05:00:26;;;;;;;19.27;9.15;;;10.10;97.50;;;;;;5012655;28;20686;-76
2021/03/31 05:02:51;;;;;;;23.08;12.02;;;10.10;97.40;;;;;;5012268;28;20029;-77
2021/03/31 05:05:17;;;;;;;21.60;11.30;;;10.20;97.60;;;;;;5011431;28;20393;-78
2021/03/31 05:07:43;;;;;;;18.38;9.43;;;10.30;97.50;;;;;;5012418;28;20022;-78
2021/03/31 05:10:09;;;;;;;16.67;8.73;;;10.40;96.90;;;;;;5031809;28;20483;-77
2021/03/31 05:12:35;;;;;;;13.85;8.13;;;10.30;96.90;;;;;;5032386;28;20033;-79
2021/03/31 05:15:01;;;;;;;13.15;8.02;;;10.50;96.40;;;;;;5032466;28;20045;-76
2021/03/31 05:17:27;;;;;;;14.60;10.40;;;10.50;95.70;;;;;;5032741;28;20026;-79
2021/03/31 05:19:52;;;;;;;21.45;11.13;;;11.10;99.90;;;;;;5032412;28;20025;-79
2021/03/31 05:22:18;;;;;;;16.40;9.23;;;11.20;97.90;;;;;;5032246;28;20492;-75
2021/03/31 05:24:44;;;;;;;27.90;15.13;;;10.80;96.20;;;;;;5032475;28;20250;-78
2021/03/31 05:27:10;;;;;;;11.85;7.72;;;11.10;95.80;;;;;;5022193;28;20034;-78
2021/03/31 05:29:36;;;;;;;18.50;7.60;;;10.90;94.30;;;;;;5011985;28;20350;-78
2021/03/31 05:32:01;;;;;;;19.40;8.95;;;11.10;94.80;;;;;;5012505;28;20068;-78
2021/03/31 05:34:27;;;;;;;13.35;8.85;;;10.60;95.30;;;;;;5012280;28;20049;-77
2021/03/31 05:36:53;;;;;;;15.57;7.95;;;10.60;95.80;;;;;;5011902;28;20033;-78
2021/03/31 05:39:19;;;;;;;14.73;8.70;;;10.70;95.20;;;;;;5012374;28;20050;-79
2021/03/31 05:41:45;;;;;;;73.20;42.75;;;11.40;95.30;;;;;;5012164;28;20392;-77
2021/03/31 05:44:11;;;;;;;45.13;24.67;;;11.70;93.50;;;;;;5011995;28;20473;-76
2021/03/31 05:46:38;;;;;;;44.08;26.15;;;12.00;93.50;;;;;;5011785;28;20022;-77
2021/03/31 05:49:04;;;;;;;41.90;24.45;;;12.00;92.80;;;;;;5011979;28;20021;-77
2021/03/31 05:51:32;;;;;;;35.65;18.63;;;12.00;92.80;;;;;;5011649;28;20022;-78
2021/03/31 05:53:58;;;;;;;31.45;19.02;;;12.20;93.00;;;;;;5011533;28;20041;-81
2021/03/31 05:56:24;;;;;;;26.58;13.15;;;12.40;92.90;;;;;;4994242;28;20026;-77
2021/03/31 05:58:50;;;;;;;33.50;12.15;;;12.40;91.90;;;;;;5003725;28;20041;-78
2021/03/31 06:01:18;;;;;;;25.67;12.63;;;12.30;91.00;;;;;;5011458;28;20079;-79
2021/03/31 06:03:46;;;;;;;28.45;15.05;;;12.30;91.30;;;;;;5000394;28;20503;-77
2021/03/31 06:06:12;;;;;;;20.50;12.13;;;12.50;91.80;;;;;;5012054;28;20037;-78
2021/03/31 06:08:38;;;;;;;17.33;10.90;;;12.40;89.60;;;;;;5017065;28;20461;-79
2021/03/31 06:11:03;;;;;;;20.60;12.85;;;11.90;90.90;;;;;;5029699;28;20550;-77
2021/03/31 06:14:00;;;;;;;167.18;91.22;;;12.20;91.50;;;;;;5011856;28;20104;-77
2021/03/31 06:16:44;;;;;;;24.25;15.23;;;12.20;91.20;;;;;;5011349;28;20157;-82
2021/03/31 06:19:28;;;;;;;15.77;9.70;;;11.90;92.40;;;;;;5012120;28;20690;-78
2021/03/31 06:24:58;;;;;;;19.27;8.82;;;11.40;93.60;;;;;;5012283;28;20485;-79
2021/03/31 06:27:28;;;;;;;15.03;9.07;;;11.00;94.30;;;;;;5011491;28;20454;-79
2021/03/31 06:30:06;;;;;;;12.88;8.00;;;10.80;96.10;;;;;;5012236;28;20389;-78
2021/03/31 06:32:39;;;;;;;11.65;7.47;;;11.20;94.60;;;;;;5011691;28;20033;-78
2021/03/31 06:35:17;;;;;;;12.20;8.32;;;11.30;93.90;;;;;;5011632;28;20076;-77
2021/03/31 06:37:44;;;;;;;17.08;7.70;;;11.20;94.40;;;;;;5011969;28;20054;-79
2021/03/31 06:40:33;;;;;;;10.98;7.53;;;11.30;92.70;;;;;;5012116;28;20022;-79
2021/03/31 06:43:29;;;;;;;15.20;7.88;;;11.50;92.10;;;;;;4993954;28;20482;-77
2021/03/31 06:46:02;;;;;;;11.30;7.50;;;11.50;92.20;;;;;;5011506;28;20389;-77
2021/03/31 06:48:30;;;;;;;16.25;7.80;;;11.80;91.10;;;;;;5011534;28;20465;-80
2021/03/31 06:50:56;;;;;;;12.05;6.97;;;11.40;90.40;;;;;;5011484;28;20029;-78
2021/03/31 06:53:30;;;;;;;11.82;7.50;;;11.60;88.80;;;;;;5011768;28;20026;-78
2021/03/31 06:56:01;;;;;;;9.75;6.80;;;11.60;86.50;;;;;;5011390;28;20037;-83
2021/03/31 06:58:27;;;;;;;8.95;6.38;;;11.30;87.20;;;;;;5011751;28;20054;-77
2021/03/31 07:00:52;;;;;;;10.02;6.32;;;11.30;85.40;;;;;;5011582;28;20090;-76
2021/03/31 07:03:19;;;;;;;11.55;6.03;;;11.50;80.70;;;;;;5011035;28;20466;-77
2021/03/31 07:05:46;;;;;;;11.60;6.30;;;11.70;78.40;;;;;;5011519;28;20033;-77
2021/03/31 07:08:17;;;;;;;10.65;6.18;;;11.80;77.20;;;;;;5011655;28;20026;-80
2021/03/31 07:11:03;;;;;;;12.85;6.03;;;11.80;76.00;;;;;;4997236;28;20177;-77
2021/03/31 07:13:37;;;;;;;9.93;5.80;;;12.00;75.30;;;;;;5010923;28;20142;-80
2021/03/31 07:16:05;;;;;;;9.68;5.78;;;12.10;74.80;;;;;;4993874;28;20030;-81
2021/03/31 07:18:33;;;;;;;9.95;6.45;;;12.20;74.20;;;;;;5011753;28;20026;-77
2021/03/31 07:21:00;;;;;;;13.50;6.55;;;12.00;76.80;;;;;;5011635;28;20018;-78
2021/03/31 07:23:27;;;;;;;10.90;6.30;;;12.00;76.20;;;;;;5011730;28;20112;-80
2021/03/31 07:25:54;;;;;;;10.38;6.55;;;12.20;76.80;;;;;;5011542;28;20038;-80
2021/03/31 07:28:25;;;;;;;8.30;6.45;;;12.10;77.90;;;;;;5012956;28;20030;-78
2021/03/31 07:30:51;;;;;;;;;;;11.90;78.80;;;;;;5012461;28;20022;-80
2021/03/31 07:33:21;;;;;;;9.90;6.10;;;11.90;78.80;;;;;;5014020;28;19951;-80
2021/03/31 07:35:49;;;;;;;10.68;6.28;;;12.20;78.10;;;;;;5014585;28;20026;-81
2021/03/31 07:38:18;;;;;;;9.75;6.53;;;12.40;77.00;;;;;;5015731;28;20034;-78
2021/03/31 07:40:48;;;;;;;10.13;7.13;;;12.30;77.80;;;;;;5015690;28;20030;-83
2021/03/31 07:43:25;;;;;;;9.18;6.57;;;12.40;78.00;;;;;;5015189;28;20109;-79
2021/03/31 07:45:56;;;;;;;9.88;6.20;;;12.40;76.30;;;;;;5015292;28;20041;-81
2021/03/31 07:48:24;;;;;;;12.00;6.55;;;12.70;75.90;;;;;;5014116;28;20026;-82
2021/03/31 07:50:50;;;;;;;8.30;5.85;;;12.70;75.40;;;;;;5014423;28;20026;-76
2021/03/31 07:53:16;;;;;;;8.77;5.97;;;12.80;73.50;;;;;;5011240;28;20389;-80
2021/03/31 07:55:46;;;;;;;11.70;6.38;;;13.00;72.00;;;;;;5013051;28;20478;-78
2021/03/31 07:58:12;;;;;;;9.25;5.93;;;13.20;71.10;;;;;;4996229;28;20025;-78
2021/03/31 08:01:01;;;;;;;8.02;6.00;;;13.40;71.40;;;;;;5013846;28;20075;-80
2021/03/31 08:03:30;;;;;;;9.60;6.18;;;13.60;68.30;;;;;;5013826;28;20385;-80
2021/03/31 08:06:09;;;;;;;8.02;6.35;;;13.70;68.50;;;;;;5014110;28;20482;-82
2021/03/31 08:08:55;;;;;;;9.25;6.90;;;13.90;68.90;;;;;;5014828;28;20096;-80
2021/03/31 08:11:39;;;;;;;12.85;6.40;;;13.80;67.40;;;;;;5012285;28;20026;-79
2021/03/31 08:14:09;;;;;;;10.45;5.93;;;13.90;66.80;;;;;;4994907;28;20112;-79
2021/03/31 08:16:38;;;;;;;12.05;6.55;;;13.70;65.60;;;;;;4994871;28;20242;-79
2021/03/31 08:19:20;;;;;;;11.00;6.68;;;13.70;65.90;;;;;;5001456;28;20026;-79
2021/03/31 08:21:49;;;;;;;11.52;6.47;;;13.60;66.50;;;;;;5011927;28;20022;-79
2021/03/31 08:24:16;;;;;;;11.35;7.00;;;13.80;66.60;;;;;;5013663;28;20076;-79
2021/03/31 08:26:44;;;;;;;10.02;5.55;;;14.10;66.40;;;;;;5014143;28;20425;-80
2021/03/31 08:29:10;;;;;;;10.60;6.00;;;14.70;61.80;;;;;;5014487;28;20421;-78
2021/03/31 08:31:39;;;;;;;9.65;5.60;;;15.10;60.00;;;;;;5013901;28;20022;-78
2021/03/31 08:34:07;;;;;;;8.65;5.32;;;15.10;58.40;;;;;;5012127;28;20116;-79
2021/03/31 08:36:35;;;;;;;9.82;5.47;;;15.40;57.70;;;;;;5013924;28;20042;-79
2021/03/31 08:39:05;;;;;;;8.45;5.97;;;15.20;56.00;;;;;;5012716;28;20433;-81
2021/03/31 08:41:31;;;;;;;8.98;5.90;;;15.50;55.90;;;;;;5013916;28;20022;-79
2021/03/31 08:44:48;;;;;;;10.30;6.18;;;15.40;54.30;;;;;;5013447;28;20053;-79
2021/03/31 08:47:22;;;;;;;9.10;6.13;;;15.70;55.00;;;;;;5013521;28;20042;-80
2021/03/31 08:50:29;;;;;;;8.10;6.00;;;16.20;56.00;;;;;;4996818;28;20026;-81
2021/03/31 08:53:01;;;;;;;8.18;5.43;;;16.60;55.40;;;;;;4983272;28;20042;-81
2021/03/31 08:55:32;;;;;;;11.85;6.03;;;17.00;53.50;;;;;;5012885;28;20505;-78
2021/03/31 08:58:03;;;;;;;10.50;5.60;;;17.10;53.50;;;;;;5012596;28;20109;-81
2021/03/31 09:00:28;;;;;;;8.10;5.20;;;17.20;52.40;;;;;;5013245;28;20025;-79
2021/03/31 09:03:04;;;;;;;7.22;5.00;;;16.80;51.80;;;;;;5013621;28;20030;-80
2021/03/31 09:05:30;;;;;;;8.98;6.07;;;17.20;51.20;;;;;;5013185;28;20034;-79
2021/03/31 09:08:00;;;;;;;8.63;5.28;;;17.20;51.20;;;;;;5013579;28;20325;-81
2021/03/31 09:10:28;;;;;;;10.02;4.88;;;16.90;49.00;;;;;;5016883;28;20037;-79
2021/03/31 09:12:54;;;;;;;10.52;5.03;;;16.60;48.70;;;;;;5012840;28;20037;-79
2021/03/31 09:15:20;;;;;;;9.32;5.35;;;16.80;49.00;;;;;;5012855;28;20129;-80
2021/03/31 09:17:47;;;;;;;8.68;5.28;;;17.20;48.10;;;;;;5013168;28;20110;-78
2021/03/31 09:20:18;;;;;;;7.60;5.07;;;16.90;48.70;;;;;;5013163;28;20065;-78
2021/03/31 09:22:44;;;;;;;9.98;4.63;;;17.50;46.80;;;;;;5013042;28;20095;-78
2021/03/31 09:25:12;;;;;;;10.18;5.53;;;17.70;46.90;;;;;;5013141;28;20424;-81
2021/03/31 09:27:38;;;;;;;8.70;4.70;;;17.30;46.20;;;;;;5013018;28;20021;-78
2021/03/31 09:30:07;;;;;;;9.25;4.60;;;17.00;46.20;;;;;;5012961;28;20033;-78
2021/03/31 09:32:38;;;;;;;10.68;4.80;;;17.30;47.70;;;;;;5013202;28;20029;-79
2021/03/31 09:35:16;;;;;;;10.88;4.95;;;17.60;46.10;;;;;;5013004;28;20044;-79
2021/03/31 09:37:48;;;;;;;11.18;5.13;;;18.00;45.90;;;;;;5012823;28;20053;-76
2021/03/31 09:40:25;;;;;;;8.93;4.70;;;18.30;45.50;;;;;;5012838;28;20042;-78
2021/03/31 09:42:56;;;;;;;9.20;4.53;;;18.40;45.60;;;;;;5012475;28;20064;-78
2021/03/31 09:45:27;;;;;;;9.35;4.68;;;18.50;44.50;;;;;;5012933;28;20144;-79
2021/03/31 09:47:53;;;;;;;7.93;4.75;;;18.20;44.00;;;;;;5013036;28;20445;-79
2021/03/31 09:50:24;;;;;;;7.03;4.57;;;18.50;45.00;;;;;;5005846;28;20022;-79
2021/03/31 09:52:54;;;;;;;8.77;5.05;;;18.90;44.60;;;;;;5002005;28;20386;-79
2021/03/31 09:55:20;;;;;;;8.88;4.60;;;18.60;43.70;;;;;;5012539;28;20052;-79
2021/03/31 09:57:50;;;;;;;11.45;5.55;;;17.80;44.90;;;;;;5012399;28;20103;-77
2021/03/31 10:00:17;;;;;;;7.88;4.75;;;18.30;45.10;;;;;;5010302;28;20045;-80
2021/03/31 10:02:45;;;;;;;7.45;4.22;;;18.80;45.00;;;;;;5012250;28;20105;-77
2021/03/31 10:05:20;;;;;;;9.25;5.13;;;19.10;43.20;;;;;;5011538;28;20038;-78
2021/03/31 10:08:00;;;;;;;8.70;4.80;;;18.70;43.00;;;;;;5012300;28;20064;-78
2021/03/31 10:10:39;;;;;;;8.33;4.53;;;18.90;43.30;;;;;;5024629;28;20388;-78
2021/03/31 10:13:05;;;;;;;8.00;4.80;;;18.60;44.50;;;;;;5005724;28;20027;-78
2021/03/31 10:15:31;;;;;;;11.73;5.35;;;18.90;43.70;;;;;;5010337;28;20060;-78
2021/03/31 10:17:57;;;;;;;8.60;4.32;;;18.70;43.00;;;;;;5011989;28;20096;-78
2021/03/31 10:20:28;;;;;;;7.70;4.78;;;19.00;43.00;;;;;;5018956;28;20053;-77
2021/03/31 10:22:54;;;;;;;7.97;4.78;;;19.10;43.00;;;;;;5030711;28;20021;-79
2021/03/31 10:25:27;;;;;;;8.70;4.45;;;19.50;42.60;;;;;;5030474;28;20045;-78
2021/03/31 10:27:54;;;;;;;14.45;5.25;;;19.30;41.70;;;;;;5031720;28;20017;-76
2021/03/31 10:30:30;;;;;;;10.25;4.20;;;19.20;42.10;;;;;;5023709;28;20025;-78
2021/03/31 10:32:57;;;;;;;9.25;4.20;;;19.00;41.50;;;;;;5023966;28;20433;-77
2021/03/31 10:35:49;;;;;;;8.75;4.35;;;17.60;42.40;;;;;;5031526;28;20017;-80
2021/03/31 10:47:01;;;;;;;6.68;4.43;;;18.20;44.00;;;;;;5036913;28;20075;-82
2021/03/31 10:52:01;;;;;;;7.97;4.70;;;20.40;42.80;;;;;;5030734;28;20021;-79
2021/03/31 10:54:35;;;;;;;8.27;5.20;;;20.70;43.70;;;;;;5030363;28;20148;-85
2021/03/31 10:57:12;;;;;;;7.63;4.40;;;21.30;43.90;;;;;;5028731;28;20036;-83
2021/03/31 10:59:38;;;;;;;8.38;4.57;;;21.50;40.80;;;;;;5012390;28;20033;-83
2021/03/31 11:02:05;;;;;;;10.40;4.40;;;21.10;41.10;;;;;;5030492;28;20017;-82
2021/03/31 11:04:32;;;;;;;7.80;4.07;;;20.30;40.30;;;;;;5030265;28;20034;-80
2021/03/31 11:07:48;;;;;;;;;;;;;;;;;;;;;
2021/03/31 11:10:17;;;;;;;10.80;5.07;;;20.30;40.10;;;;;;5030736;28;20431;-83
2021/03/31 11:12:43;;;;;;;9.20;4.05;;;20.10;40.80;;;;;;5030280;28;20022;-82
2021/03/31 11:15:25;;;;;;;9.70;3.78;;;20.40;40.40;;;;;;5014048;28;20058;-85
2021/03/31 11:20:47;;;;;;;8.45;4.13;;;20.50;39.00;;;;;;5010100;28;20021;-82
2021/03/31 11:25:55;;;;;;;6.70;4.57;;;20.30;39.10;;;;;;5009688;28;20132;-86
2021/03/31 11:28:22;;;;;;;7.40;3.80;;;20.80;39.30;;;;;;5007276;28;20100;-82
2021/03/31 11:30:49;;;;;;;6.28;3.58;;;21.10;38.90;;;;;;5009945;28;20030;-83
2021/03/31 11:33:15;;;;;;;9.32;4.18;;;20.60;38.80;;;;;;5010277;28;20503;-81
2021/03/31 11:35:41;;;;;;;7.18;3.92;;;20.50;39.40;;;;;;4992477;28;20028;-82
2021/03/31 11:38:07;;;;;;;8.68;4.20;;;20.70;39.90;;;;;;5010623;28;20034;-82
2021/03/31 11:40:33;;;;;;;7.40;4.05;;;21.70;39.50;;;;;;5010036;28;20021;-85
2021/03/31 11:42:59;;;;;;;8.55;4.60;;;21.80;37.70;;;;;;5010297;28;20088;-83
2021/03/31 11:45:25;;;;;;;7.90;4.32;;;22.30;38.10;;;;;;5009987;28;20041;-83
2021/03/31 11:47:51;;;;;;;7.47;4.13;;;20.50;38.40;;;;;;5010456;28;20579;-85
2021/03/31 11:50:17;;;;;;;7.90;4.18;;;19.50;39.00;;;;;;5007769;28;20537;-83
2021/03/31 11:52:45;;;;;;;8.85;4.10;;;19.10;40.10;;;;;;4992820;28;20029;-80
2021/03/31 11:55:11;;;;;;;8.57;4.38;;;18.70;39.20;;;;;;5010446;28;20253;-85
2021/03/31 11:57:37;;;;;;;10.07;4.15;;;18.60;41.00;;;;;;5007879;28;20686;-79
2021/03/31 12:00:05;;;;;;;6.55;4.03;;;18.10;40.00;;;;;;5010230;28;20033;-83
2021/03/31 12:02:31;;;;;;;7.35;4.45;;;18.20;40.00;;;;;;5010313;28;20136;-80
2021/03/31 12:04:57;;;;;;;8.93;4.20;;;18.30;40.00;;;;;;5010316;28;20104;-83
2021/03/31 12:07:23;;;;;;;8.48;4.88;;;17.80;40.10;;;;;;5010830;28;20026;-82
2021/03/31 12:09:49;;;;;;;6.97;4.53;;;18.80;40.10;;;;;;5015084;28;20425;-83
2021/03/31 12:12:15;;;;;;;9.45;4.38;;;19.20;39.40;;;;;;5016957;28;20469;-82
2021/03/31 12:14:41;;;;;;;8.85;4.30;;;19.40;39.30;;;;;;5010686;28;20045;-81
2021/03/31 12:17:08;;;;;;;9.88;5.03;;;18.90;39.70;;;;;;5013515;28;20081;-84
2021/03/31 12:19:35;;;;;;;6.97;4.55;;;18.60;39.30;;;;;;5013156;28;20022;-81
2021/03/31 12:22:01;;;;;;;7.47;4.53;;;18.80;39.50;;;;;;5013229;28;20014;-84
2021/03/31 12:24:27;;;;;;;7.32;4.20;;;19.20;39.40;;;;;;5013378;28;20069;-84
2021/03/31 12:27:00;;;;;;;7.75;4.97;;;20.20;38.40;;;;;;5012824;28;20049;-84
2021/03/31 12:29:29;;;;;;;9.35;5.25;;;20.20;37.80;;;;;;5013492;28;20030;-81
2021/03/31 12:31:55;;;;;;;6.82;4.13;;;20.30;38.20;;;;;;5011396;28;20084;-85
2021/03/31 12:34:21;;;;;;;7.22;4.40;;;20.00;38.90;;;;;;5015179;28;20026;-87
2021/03/31 12:36:46;;;;;;;7.88;4.40;;;20.90;38.10;;;;;;5014495;28;20096;-87
2021/03/31 12:39:12;;;;;;;7.15;4.20;;;21.70;36.60;;;;;;5014636;28;20393;-85
2021/03/31 12:41:38;;;;;;;7.10;4.07;;;22.70;37.10;;;;;;5014158;28;20025;-84
2021/03/31 12:44:05;;;;;;;7.50;3.90;;;23.00;36.90;;;;;;5013391;28;20038;-83
2021/03/31 12:46:31;;;;;;;8.07;4.00;;;22.90;35.90;;;;;;5010601;28;20053;-83
2021/03/31 12:48:57;;;;;;;9.50;4.80;;;23.70;35.70;;;;;;5013148;28;20049;-83
2021/03/31 12:51:39;;;;;;;8.05;5.10;;;22.90;35.60;;;;;;5013599;28;20021;-86
2021/03/31 12:56:32;;;;;;;10.90;4.32;;;23.10;34.70;;;;;;5015172;28;20093;-82
2021/03/31 12:58:58;;;;;;;8.20;4.93;;;22.50;35.00;;;;;;5013246;28;20021;-86
2021/03/31 13:01:25;;;;;;;8.23;4.47;;;22.60;36.00;;;;;;4988937;28;20383;-85
2021/03/31 13:03:52;;;;;;;8.10;5.03;;;23.20;35.50;;;;;;5012142;28;20026;-83
2021/03/31 13:06:19;;;;;;;7.28;4.55;;;23.60;35.30;;;;;;4999601;28;20089;-86
2021/03/31 13:08:49;;;;;;;7.40;4.70;;;23.00;35.60;;;;;;5013613;28;20149;-85
2021/03/31 13:11:15;;;;;;;9.65;4.95;;;22.30;35.80;;;;;;5016239;28;20405;-85
2021/03/31 13:32:07;;;;;;;11.40;5.00;;;24.20;34.40;;;;;;5013390;28;20049;-85
2021/03/31 13:34:49;;;;;;;8.27;5.07;;;23.90;33.90;;;;;;5013897;28;20045;-87